Time;durP1;ratioP1;P1;durP2;ratioP2;P2;SDS_P1;SDS_P2;PMS_P1;PMS_P2;Temp;Humidity;BMP_temperature;BMP_pressure;BME280_temperature;BME280_humidity;BME280_pressure;Samples;Min_cycle;Max_cycle;Signal;HPM_P1;HPM_P2
2024/01/26 00:02:04;;;;;;;17.30;8.00;;;6.20;99.90;;;;;;4998124;28;20496;-67
2024/01/26 00:04:33;;;;;;;19.10;7.93;;;6.20;99.90;;;;;;4995271;28;20530;-66
2024/01/26 00:07:01;;;;;;;14.37;8.23;;;6.20;99.90;;;;;;4998524;28;20961;-66
2024/01/26 00:09:30;;;;;;;18.53;9.03;;;6.20;99.90;;;;;;4995509;28;20492;-67
2024/01/26 00:11:58;;;;;;;17.70;8.47;;;6.20;99.90;;;;;;4997638;28;20489;-66
2024/01/26 00:14:26;;;;;;;19.80;8.77;;;6.20;99.90;;;;;;4997200;28;20902;-66
2024/01/26 00:16:54;;;;;;;16.03;8.30;;;6.20;99.90;;;;;;5001696;28;21700;-67
2024/01/26 00:19:22;;;;;;;19.80;8.50;;;6.20;99.90;;;;;;5000725;28;20500;-66
2024/01/26 00:21:52;;;;;;;18.87;8.27;;;6.20;99.90;;;;;;5001637;28;20507;-66
2024/01/26 00:24:20;;;;;;;17.60;9.00;;;6.20;99.90;;;;;;5001512;28;20542;-65
2024/01/26 00:26:51;;;;;;;17.73;8.83;;;6.20;99.90;;;;;;4995840;28;20553;-65
2024/01/26 00:29:19;;;;;;;19.37;8.80;;;6.20;99.90;;;;;;5001153;28;20520;-66
2024/01/26 00:31:47;;;;;;;19.13;7.93;;;6.20;99.90;;;;;;5001550;28;20500;-66
2024/01/26 00:34:15;;;;;;;17.00;7.50;;;6.20;99.90;;;;;;5001815;28;20503;-66
2024/01/26 00:36:44;;;;;;;22.87;7.50;;;6.20;99.90;;;;;;5001415;28;20961;-65
2024/01/26 00:39:13;;;;;;;21.50;9.00;;;6.20;99.90;;;;;;5000571;28;20476;-66
2024/01/26 00:41:41;;;;;;;15.87;7.23;;;6.20;99.90;;;;;;5002358;28;20492;-65
2024/01/26 00:44:09;;;;;;;19.93;8.20;;;6.20;99.90;;;;;;4996004;28;20531;-66
2024/01/26 00:46:38;;;;;;;15.27;7.57;;;6.20;99.90;;;;;;5002813;28;20947;-66
2024/01/26 00:49:06;;;;;;;17.70;8.67;;;6.20;99.90;;;;;;5000169;28;20503;-66
2024/01/26 00:51:34;;;;;;;17.27;8.10;;;6.20;99.90;;;;;;5002071;28;20858;-66
2024/01/26 00:54:02;;;;;;;21.63;7.30;;;6.20;99.90;;;;;;5002923;28;20483;-66
2024/01/26 00:56:31;;;;;;;17.90;8.20;;;6.20;99.90;;;;;;4999119;28;20837;-66
2024/01/26 00:59:00;;;;;;;16.00;8.03;;;6.20;99.90;;;;;;5001062;28;21032;-65
2024/01/26 01:01:28;;;;;;;18.30;7.87;;;6.20;99.90;;;;;;4999929;28;20488;-65
2024/01/26 01:03:57;;;;;;;25.63;9.20;;;6.20;99.90;;;;;;5000257;28;20477;-66
2024/01/26 01:06:25;;;;;;;19.07;8.00;;;6.20;99.90;;;;;;5000473;28;20822;-65
2024/01/26 01:08:54;;;;;;;17.70;7.80;;;6.20;99.90;;;;;;5000702;28;20502;-65
2024/01/26 01:11:22;;;;;;;19.23;7.60;;;6.20;99.90;;;;;;4998422;28;21060;-66
2024/01/26 01:13:51;;;;;;;17.47;9.00;;;6.20;99.90;;;;;;5001939;28;20475;-65
2024/01/26 01:16:20;;;;;;;23.03;7.90;;;6.20;99.90;;;;;;5000775;28;20574;-65
2024/01/26 01:18:48;;;;;;;19.43;7.50;;;6.20;99.90;;;;;;4999056;28;20555;-65
2024/01/26 01:21:17;;;;;;;16.43;8.03;;;6.20;99.90;;;;;;5000015;28;20496;-65
2024/01/26 01:23:45;;;;;;;17.70;8.80;;;6.20;99.90;;;;;;5003123;28;20554;-66
2024/01/26 01:26:14;;;;;;;16.43;7.37;;;6.20;99.90;;;;;;4997598;28;20512;-66
2024/01/26 01:28:42;;;;;;;16.80;8.00;;;6.20;99.90;;;;;;4999592;28;21012;-66
2024/01/26 01:31:11;;;;;;;19.73;7.70;;;6.20;99.90;;;;;;5000128;28;20517;-68
2024/01/26 01:33:39;;;;;;;21.20;9.87;;;6.10;99.90;;;;;;4999242;28;20468;-65
2024/01/26 01:36:08;;;;;;;19.20;8.33;;;6.20;99.90;;;;;;4998346;28;20484;-66
2024/01/26 01:38:36;;;;;;;22.73;8.40;;;6.20;99.90;;;;;;5000656;28;20479;-66
2024/01/26 01:41:04;;;;;;;23.00;7.90;;;6.20;99.90;;;;;;4998023;28;20484;-66
2024/01/26 01:43:32;;;;;;;22.20;7.70;;;6.20;99.90;;;;;;5000473;28;20873;-65
2024/01/26 01:46:00;;;;;;;15.80;8.10;;;6.20;99.90;;;;;;4997300;28;20481;-65
2024/01/26 01:48:29;;;;;;;18.10;9.00;;;6.20;99.90;;;;;;5001144;28;20480;-65
2024/01/26 01:50:58;;;;;;;18.10;8.17;;;6.20;99.90;;;;;;5000610;28;20502;-66
2024/01/26 01:53:29;;;;;;;17.80;8.87;;;6.20;99.90;;;;;;4997459;28;20954;-66
2024/01/26 01:56:00;;;;;;;20.83;9.30;;;6.20;99.90;;;;;;5000968;28;20473;-66
2024/01/26 01:58:31;;;;;;;17.63;9.00;;;6.20;99.90;;;;;;4998652;28;20476;-66
2024/01/26 02:00:59;;;;;;;16.50;9.47;;;6.20;99.90;;;;;;4997694;28;20579;-65
2024/01/26 02:03:29;;;;;;;18.80;9.40;;;6.20;99.90;;;;;;5001643;28;20533;-66
2024/01/26 02:05:57;;;;;;;17.90;9.20;;;6.20;99.90;;;;;;4997962;28;20479;-66
2024/01/26 02:08:25;;;;;;;15.90;8.40;;;6.20;99.90;;;;;;4995986;28;20504;-66
2024/01/26 02:10:53;;;;;;;17.23;8.97;;;6.20;99.90;;;;;;4998405;28;20488;-66
2024/01/26 02:13:21;;;;;;;22.67;8.97;;;6.20;99.90;;;;;;4999657;28;20559;-66
2024/01/26 02:15:49;;;;;;;20.53;8.80;;;6.20;99.90;;;;;;4997603;28;20500;-65
2024/01/26 02:18:17;;;;;;;21.50;9.50;;;6.30;99.90;;;;;;4995961;28;20579;-66
2024/01/26 02:20:47;;;;;;;21.00;9.27;;;6.30;99.90;;;;;;4996611;28;20495;-65
2024/01/26 02:23:24;;;;;;;20.20;9.03;;;6.30;99.90;;;;;;5001962;28;20476;-66
2024/01/26 02:25:52;;;;;;;20.63;9.80;;;6.30;99.90;;;;;;5000388;28;20468;-66
2024/01/26 02:28:20;;;;;;;21.23;9.30;;;6.20;99.90;;;;;;4998711;28;20498;-66
2024/01/26 02:30:48;;;;;;;20.63;9.43;;;6.20;99.90;;;;;;5000362;28;20488;-66
2024/01/26 02:33:16;;;;;;;17.00;9.37;;;6.20;99.90;;;;;;4996864;28;20530;-66
2024/01/26 02:35:45;;;;;;;23.67;10.07;;;6.30;99.90;;;;;;4998078;28;20468;-66
2024/01/26 02:38:13;;;;;;;20.43;9.47;;;6.20;99.90;;;;;;4998889;28;20519;-66
2024/01/26 02:40:42;;;;;;;18.20;9.90;;;6.20;99.90;;;;;;4996049;28;20571;-65
2024/01/26 02:43:10;;;;;;;16.83;9.30;;;6.20;99.90;;;;;;4999538;28;20474;-66
2024/01/26 02:45:38;;;;;;;19.07;10.00;;;6.20;99.90;;;;;;5000749;28;20468;-66
2024/01/26 02:48:06;;;;;;;23.20;11.43;;;6.20;99.90;;;;;;5000299;28;20464;-66
2024/01/26 02:50:34;;;;;;;25.03;9.90;;;6.20;99.90;;;;;;4995967;28;21064;-65
2024/01/26 02:53:02;;;;;;;18.40;9.93;;;6.20;99.90;;;;;;4999360;28;20500;-66
2024/01/26 02:55:30;;;;;;;25.20;10.40;;;6.20;99.90;;;;;;4996813;28;20474;-67
2024/01/26 02:57:59;;;;;;;25.60;10.17;;;6.20;99.90;;;;;;5000005;28;20980;-66
2024/01/26 03:00:27;;;;;;;17.23;8.80;;;6.30;99.90;;;;;;5005030;28;20581;-66
2024/01/26 03:02:55;;;;;;;21.37;10.40;;;6.30;99.90;;;;;;5014109;28;21020;-66
2024/01/26 03:05:23;;;;;;;20.30;10.60;;;6.30;99.90;;;;;;5013383;28;20471;-66
2024/01/26 03:07:51;;;;;;;22.13;10.50;;;6.30;99.90;;;;;;5019567;28;20992;-66
2024/01/26 03:10:19;;;;;;;20.47;9.90;;;6.30;99.90;;;;;;5011090;28;20488;-66
2024/01/26 03:12:48;;;;;;;24.23;11.03;;;6.30;99.90;;;;;;4998368;28;20468;-65
2024/01/26 03:15:18;;;;;;;20.43;9.90;;;6.30;99.90;;;;;;4999457;28;20475;-66
2024/01/26 03:17:46;;;;;;;24.03;10.60;;;6.30;99.90;;;;;;4995207;28;20530;-67
2024/01/26 03:20:15;;;;;;;22.30;10.20;;;6.30;99.90;;;;;;4997842;28;20511;-66
2024/01/26 03:22:43;;;;;;;19.37;9.50;;;6.30;99.90;;;;;;4997233;28;20472;-66
2024/01/26 03:25:11;;;;;;;19.23;10.50;;;6.30;99.90;;;;;;4997487;28;20465;-65
2024/01/26 03:27:39;;;;;;;23.53;10.10;;;6.30;99.90;;;;;;4999854;28;20477;-66
2024/01/26 03:30:09;;;;;;;20.40;10.50;;;6.30;99.90;;;;;;4995285;28;20506;-66
2024/01/26 03:32:38;;;;;;;18.57;10.97;;;6.40;99.90;;;;;;4996052;28;20470;-66
2024/01/26 03:35:07;;;;;;;23.10;10.50;;;6.40;99.90;;;;;;4996550;28;20501;-67
2024/01/26 03:37:37;;;;;;;26.40;10.87;;;6.40;99.90;;;;;;4999527;28;20465;-66
2024/01/26 03:40:06;;;;;;;21.43;11.23;;;6.40;99.90;;;;;;4998115;28;20584;-66
2024/01/26 03:42:35;;;;;;;20.20;10.63;;;6.50;99.90;;;;;;4998193;28;20530;-66
2024/01/26 03:45:03;;;;;;;20.03;11.70;;;6.50;99.90;;;;;;4997322;28;20544;-66
2024/01/26 03:47:31;;;;;;;27.70;12.20;;;6.50;99.90;;;;;;4999037;28;20564;-66
2024/01/26 03:50:00;;;;;;;21.43;10.10;;;6.50;99.90;;;;;;4997241;28;21000;-66
2024/01/26 03:52:28;;;;;;;20.60;10.27;;;6.50;99.90;;;;;;4997670;28;20567;-66
2024/01/26 03:54:56;;;;;;;14.53;10.50;;;6.50;99.90;;;;;;4998463;28;20505;-65
2024/01/26 03:57:24;;;;;;;23.47;10.57;;;6.50;99.90;;;;;;4998410;28;20477;-66
2024/01/26 03:59:52;;;;;;;24.50;10.37;;;6.50;99.90;;;;;;4995389;28;21780;-66
2024/01/26 04:02:23;;;;;;;24.90;11.40;;;6.60;99.90;;;;;;5000071;28;20468;-66
2024/01/26 04:04:51;;;;;;;20.10;10.70;;;6.60;99.90;;;;;;4996490;28;20556;-66
2024/01/26 04:07:20;;;;;;;19.00;9.87;;;6.60;99.90;;;;;;4998833;28;21020;-66
2024/01/26 04:09:48;;;;;;;23.00;11.50;;;6.60;99.90;;;;;;4994115;28;20471;-64
2024/01/26 04:12:16;;;;;;;24.40;10.90;;;6.70;99.90;;;;;;4997614;28;20490;-65
2024/01/26 04:14:44;;;;;;;20.13;10.77;;;6.70;99.90;;;;;;4997362;28;20472;-66
2024/01/26 04:17:12;;;;;;;19.90;9.87;;;6.70;99.90;;;;;;4999542;28;21039;-65
2024/01/26 04:19:40;;;;;;;23.97;10.60;;;6.70;99.90;;;;;;4998387;28;20553;-65
2024/01/26 04:22:08;;;;;;;20.93;10.27;;;6.70;99.90;;;;;;4996572;28;20484;-65
2024/01/26 04:24:37;;;;;;;18.13;10.57;;;6.70;99.90;;;;;;4996644;28;20487;-65
2024/01/26 04:27:06;;;;;;;23.40;10.70;;;6.70;99.90;;;;;;4995944;28;20969;-65
2024/01/26 04:29:34;;;;;;;21.83;11.00;;;6.70;99.90;;;;;;4993194;28;20902;-65
2024/01/26 04:32:02;;;;;;;26.30;11.00;;;6.70;99.90;;;;;;4996868;28;20550;-65
2024/01/26 04:34:30;;;;;;;20.03;11.00;;;6.70;99.90;;;;;;4999156;28;21233;-65
2024/01/26 04:36:58;;;;;;;22.17;11.10;;;6.70;99.90;;;;;;5000477;28;20992;-65
2024/01/26 04:39:26;;;;;;;26.83;12.00;;;6.80;99.90;;;;;;4998964;28;20558;-65
2024/01/26 04:41:55;;;;;;;19.63;10.00;;;6.80;99.90;;;;;;4996737;28;20558;-68
2024/01/26 04:44:24;;;;;;;20.83;11.73;;;6.80;99.90;;;;;;4997679;28;20465;-65
2024/01/26 04:46:54;;;;;;;19.80;12.43;;;6.80;99.90;;;;;;4998602;28;21080;-65
2024/01/26 04:49:23;;;;;;;22.43;11.40;;;6.90;99.90;;;;;;4998127;28;20555;-66
2024/01/26 04:51:51;;;;;;;19.37;11.20;;;6.80;99.90;;;;;;4997046;28;20534;-65
2024/01/26 04:54:19;;;;;;;20.23;10.90;;;6.90;99.90;;;;;;4997629;28;20504;-64
2024/01/26 04:56:47;;;;;;;23.00;11.53;;;6.90;99.90;;;;;;4994810;28;20559;-66
2024/01/26 04:59:17;;;;;;;20.87;11.77;;;6.90;99.90;;;;;;4994601;28;20848;-65
2024/01/26 05:01:45;;;;;;;19.13;11.53;;;6.90;99.90;;;;;;4996041;28;21465;-65
2024/01/26 05:04:13;;;;;;;24.30;12.73;;;6.90;99.90;;;;;;5000972;28;20465;-65
2024/01/26 05:06:42;;;;;;;21.57;11.20;;;6.90;99.90;;;;;;5003150;28;20486;-65
2024/01/26 05:09:11;;;;;;;21.80;12.23;;;7.00;99.90;;;;;;5000035;28;20472;-66
2024/01/26 05:11:39;;;;;;;22.47;11.20;;;7.00;99.90;;;;;;5001341;28;20491;-65
2024/01/26 05:14:07;;;;;;;20.57;11.17;;;7.00;99.90;;;;;;4992295;28;20472;-65
2024/01/26 05:16:37;;;;;;;23.00;11.67;;;7.00;99.90;;;;;;5002514;28;20916;-65
2024/01/26 05:19:05;;;;;;;20.87;11.97;;;7.00;99.90;;;;;;5002042;28;20476;-65
2024/01/26 05:21:33;;;;;;;23.90;12.10;;;7.00;99.90;;;;;;5001147;28;20487;-65
2024/01/26 05:24:01;;;;;;;25.47;12.57;;;7.10;99.90;;;;;;5002343;28;20485;-65
2024/01/26 05:26:29;;;;;;;25.17;12.13;;;7.10;99.90;;;;;;5002265;28;20512;-66
2024/01/26 05:28:57;;;;;;;20.43;12.60;;;7.10;99.90;;;;;;5001393;28;20661;-66
2024/01/26 05:31:25;;;;;;;21.97;12.50;;;7.10;99.90;;;;;;4996549;28;20618;-66
2024/01/26 05:33:55;;;;;;;21.63;12.13;;;7.10;99.90;;;;;;5000556;28;20472;-66
2024/01/26 05:36:23;;;;;;;18.93;11.73;;;7.10;99.90;;;;;;5001961;28;20469;-65
2024/01/26 05:38:51;;;;;;;22.47;12.77;;;7.20;99.90;;;;;;5002081;28;20539;-65
2024/01/26 05:41:19;;;;;;;23.20;13.03;;;7.10;99.90;;;;;;4999464;28;20489;-65
2024/01/26 05:43:47;;;;;;;24.27;12.70;;;7.20;99.90;;;;;;4998178;28;20992;-65
2024/01/26 05:46:15;;;;;;;23.93;12.90;;;7.20;99.90;;;;;;5001149;28;20472;-65
2024/01/26 05:48:44;;;;;;;24.93;13.27;;;7.30;99.90;;;;;;4999272;28;20474;-66
2024/01/26 05:51:14;;;;;;;24.33;13.67;;;7.30;99.90;;;;;;4995855;28;20499;-65
2024/01/26 05:53:42;;;;;;;25.10;14.10;;;7.30;99.90;;;;;;4999677;28;20537;-65
2024/01/26 05:56:10;;;;;;;24.43;13.60;;;7.30;99.90;;;;;;4999220;28;20476;-65
2024/01/26 05:58:38;;;;;;;21.90;11.80;;;7.30;99.90;;;;;;4992409;28;20589;-65
2024/01/26 06:01:07;;;;;;;23.80;14.23;;;7.30;99.90;;;;;;4994778;28;20576;-65
2024/01/26 06:03:35;;;;;;;25.77;13.90;;;7.30;99.90;;;;;;4993669;28;20917;-65
2024/01/26 06:06:03;;;;;;;30.90;14.53;;;7.40;99.90;;;;;;4990903;28;20472;-63
2024/01/26 06:08:33;;;;;;;23.83;13.13;;;7.40;99.90;;;;;;4993460;28;20992;-62
2024/01/26 06:11:01;;;;;;;26.30;13.80;;;7.40;99.90;;;;;;4997718;28;20549;-63
2024/01/26 06:13:29;;;;;;;30.37;14.60;;;7.40;99.90;;;;;;5016417;28;20471;-63
2024/01/26 06:15:57;;;;;;;22.40;13.50;;;7.40;99.90;;;;;;5015069;28;21078;-63
2024/01/26 06:18:25;;;;;;;27.10;15.73;;;7.50;99.90;;;;;;5016426;28;21056;-63
2024/01/26 06:20:53;;;;;;;24.00;14.30;;;7.50;99.90;;;;;;5014754;28;20492;-63
2024/01/26 06:23:21;;;;;;;27.27;13.50;;;7.50;99.90;;;;;;5018099;28;20590;-63
2024/01/26 06:25:50;;;;;;;27.13;14.37;;;7.50;99.90;;;;;;5013100;28;20513;-64
2024/01/26 06:28:18;;;;;;;26.13;14.50;;;7.50;99.90;;;;;;5017612;28;20554;-64
2024/01/26 06:30:46;;;;;;;28.00;15.00;;;7.60;99.90;;;;;;5017683;28;21076;-64
2024/01/26 06:33:14;;;;;;;26.27;14.60;;;7.60;99.90;;;;;;5014189;28;21020;-63
2024/01/26 06:35:43;;;;;;;24.17;13.77;;;7.60;99.90;;;;;;5014968;28;20640;-66
2024/01/26 06:38:12;;;;;;;24.40;15.03;;;7.60;99.90;;;;;;5015616;28;20482;-62
2024/01/26 06:40:41;;;;;;;28.47;16.23;;;7.60;99.90;;;;;;5016800;28;20491;-63
2024/01/26 06:43:10;;;;;;;30.93;15.40;;;7.60;99.90;;;;;;5013825;28;20554;-63
2024/01/26 06:45:38;;;;;;;22.93;14.30;;;7.60;99.90;;;;;;5016032;28;20567;-62
2024/01/26 06:48:07;;;;;;;29.77;14.40;;;7.60;99.90;;;;;;5019850;28;20966;-63
2024/01/26 06:50:35;;;;;;;27.43;16.07;;;7.60;99.90;;;;;;5014876;28;21090;-63
2024/01/26 06:53:04;;;;;;;29.00;16.30;;;7.60;99.90;;;;;;5009864;28;20496;-62
2024/01/26 06:55:32;;;;;;;26.60;15.57;;;7.70;99.90;;;;;;5017518;28;20597;-62
2024/01/26 06:58:00;;;;;;;26.63;15.40;;;7.70;99.90;;;;;;5020353;28;21054;-62
2024/01/26 07:00:29;;;;;;;25.67;14.67;;;7.70;99.90;;;;;;5018457;28;20497;-62
2024/01/26 07:02:58;;;;;;;29.33;15.67;;;7.80;99.90;;;;;;5012430;28;20562;-62
2024/01/26 07:05:26;;;;;;;27.77;15.47;;;7.80;99.90;;;;;;5018352;28;20551;-62
2024/01/26 07:07:54;;;;;;;28.17;15.67;;;7.80;99.90;;;;;;5020661;28;20578;-61
2024/01/26 07:10:22;;;;;;;24.50;14.70;;;7.80;99.90;;;;;;5017401;28;20922;-62
2024/01/26 07:12:50;;;;;;;29.67;16.33;;;7.80;99.90;;;;;;5019427;28;20594;-62
2024/01/26 07:15:18;;;;;;;31.13;16.63;;;7.90;99.90;;;;;;5018909;28;20475;-62
2024/01/26 07:17:49;;;;;;;28.47;15.53;;;7.90;99.90;;;;;;5018045;28;20500;-63
2024/01/26 07:20:19;;;;;;;28.80;16.40;;;7.90;99.90;;;;;;5014782;28;20571;-63
2024/01/26 07:22:47;;;;;;;32.53;17.03;;;7.90;99.90;;;;;;5017339;28;20566;-63
2024/01/26 07:25:19;;;;;;;29.63;16.17;;;7.90;99.90;;;;;;5018038;28;20568;-62
2024/01/26 07:27:47;;;;;;;26.07;14.70;;;7.90;99.90;;;;;;5018525;28;21022;-62
2024/01/26 07:30:17;;;;;;;30.47;16.83;;;7.90;99.90;;;;;;5016372;28;20483;-62
2024/01/26 07:32:47;;;;;;;26.53;16.50;;;8.00;99.90;;;;;;5017794;28;20499;-63
2024/01/26 07:35:15;;;;;;;30.27;16.13;;;8.00;99.90;;;;;;5019175;28;20844;-63
2024/01/26 07:37:43;;;;;;;26.33;15.70;;;8.10;99.90;;;;;;5018863;28;20555;-63
2024/01/26 07:40:12;;;;;;;28.70;17.67;;;8.10;99.90;;;;;;5014694;28;20574;-62
2024/01/26 07:42:40;;;;;;;27.00;15.97;;;8.10;99.90;;;;;;5019896;28;21186;-62
2024/01/26 07:45:09;;;;;;;27.90;16.80;;;8.10;99.90;;;;;;5020430;28;20996;-62
2024/01/26 07:47:37;;;;;;;27.53;16.90;;;8.10;99.90;;;;;;5011941;28;21023;-63
2024/01/26 07:50:08;;;;;;;27.13;16.73;;;8.10;99.90;;;;;;5018903;28;20487;-62
2024/01/26 07:52:36;;;;;;;27.50;17.77;;;8.20;99.90;;;;;;5017187;28;20488;-63
2024/01/26 07:55:05;;;;;;;24.27;16.00;;;8.20;99.90;;;;;;5018979;28;20926;-63
2024/01/26 07:57:34;;;;;;;28.90;18.50;;;8.20;99.90;;;;;;5018301;28;21024;-63
2024/01/26 08:00:02;;;;;;;24.80;16.83;;;8.30;99.90;;;;;;5018107;28;20467;-62
2024/01/26 08:02:30;;;;;;;25.13;16.60;;;8.40;99.90;;;;;;5018217;28;20465;-63
2024/01/26 08:04:58;;;;;;;33.20;18.10;;;8.40;99.90;;;;;;5014738;28;20475;-63
2024/01/26 08:07:28;;;;;;;25.20;16.57;;;8.50;99.90;;;;;;5017782;28;20471;-63
2024/01/26 08:09:56;;;;;;;27.53;17.03;;;8.50;99.90;;;;;;5017656;28;20463;-62
2024/01/26 08:12:24;;;;;;;26.93;17.43;;;8.60;99.90;;;;;;5017116;28;20521;-62
2024/01/26 08:15:11;;;;;;;25.37;16.63;;;8.60;99.90;;;;;;5017921;28;21252;-62
2024/01/26 08:17:40;;;;;;;28.60;16.37;;;8.70;99.90;;;;;;5020313;28;20983;-62
2024/01/26 08:20:09;;;;;;;26.50;17.10;;;8.70;99.90;;;;;;5012260;28;20508;-62
2024/01/26 08:22:42;;;;;;;25.00;15.47;;;8.80;99.90;;;;;;5000455;28;20487;-63
2024/01/26 08:25:11;;;;;;;27.63;16.90;;;8.80;99.90;;;;;;4996580;28;20562;-63
2024/01/26 08:27:39;;;;;;;26.83;16.20;;;8.80;99.90;;;;;;4997473;28;20759;-63
2024/01/26 08:30:09;;;;;;;23.03;15.60;;;8.90;99.90;;;;;;4995559;28;20502;-62
2024/01/26 08:32:38;;;;;;;24.73;15.40;;;8.90;99.90;;;;;;4995296;28;20599;-63
2024/01/26 08:35:09;;;;;;;24.30;16.67;;;9.00;99.90;;;;;;4997194;28;20476;-63
2024/01/26 08:37:39;;;;;;;28.77;16.10;;;9.00;99.90;;;;;;5001459;28;20468;-63
2024/01/26 08:40:10;;;;;;;24.90;16.17;;;9.00;99.90;;;;;;5001473;28;20874;-62
2024/01/26 08:42:38;;;;;;;20.53;14.57;;;9.10;99.90;;;;;;5000464;28;20477;-63
2024/01/26 08:45:08;;;;;;;21.37;15.23;;;9.10;99.90;;;;;;5000240;28;20567;-63
2024/01/26 08:47:36;;;;;;;23.30;16.73;;;9.10;99.90;;;;;;5000738;28;20501;-63
2024/01/26 08:50:05;;;;;;;18.67;15.00;;;9.10;99.90;;;;;;5000431;28;20477;-63
2024/01/26 08:52:33;;;;;;;23.63;14.50;;;9.10;99.90;;;;;;5000278;28;20848;-63
2024/01/26 08:55:01;;;;;;;21.10;15.23;;;9.20;99.90;;;;;;5002470;28;20501;-63
2024/01/26 08:57:31;;;;;;;20.77;13.80;;;9.20;99.90;;;;;;5002411;28;20529;-62
2024/01/26 08:59:59;;;;;;;22.13;14.20;;;9.20;99.90;;;;;;5001548;28;20476;-62
2024/01/26 09:02:28;;;;;;;21.13;15.07;;;9.20;99.90;;;;;;5000963;28;20482;-63
2024/01/26 09:04:56;;;;;;;22.77;14.83;;;9.20;99.90;;;;;;4999167;28;21038;-63
2024/01/26 09:07:24;;;;;;;23.07;15.53;;;9.20;99.90;;;;;;5001682;28;20475;-62
2024/01/26 09:09:53;;;;;;;20.50;14.47;;;9.20;99.90;;;;;;5002158;28;20920;-62
2024/01/26 09:12:21;;;;;;;20.53;13.93;;;9.20;99.90;;;;;;4999301;28;20479;-63
2024/01/26 09:14:51;;;;;;;20.23;14.97;;;9.20;99.90;;;;;;5000186;28;20494;-63
2024/01/26 09:17:19;;;;;;;22.10;14.70;;;9.20;99.90;;;;;;5001840;28;20473;-63
2024/01/26 09:19:47;;;;;;;18.37;13.00;;;9.20;99.90;;;;;;5000026;28;20521;-63
2024/01/26 09:22:15;;;;;;;19.63;12.77;;;9.20;99.90;;;;;;5001015;28;20481;-62
2024/01/26 09:24:43;;;;;;;17.17;12.20;;;9.20;99.90;;;;;;5000681;28;21091;-62
2024/01/26 09:27:11;;;;;;;19.17;13.27;;;9.30;99.90;;;;;;4996344;28;21013;-62
2024/01/26 09:29:39;;;;;;;21.87;13.77;;;9.20;99.90;;;;;;5001866;28;20464;-63
2024/01/26 09:32:08;;;;;;;17.57;12.13;;;9.30;99.90;;;;;;4997376;28;20497;-64
2024/01/26 09:34:37;;;;;;;17.47;12.17;;;9.30;99.90;;;;;;5000564;28;20611;-63
2024/01/26 09:37:05;;;;;;;18.00;11.90;;;9.30;99.90;;;;;;5000537;28;20476;-63
2024/01/26 09:39:33;;;;;;;18.80;12.57;;;9.30;99.90;;;;;;4999442;28;20834;-62
2024/01/26 09:42:02;;;;;;;16.20;11.93;;;9.30;99.90;;;;;;5000471;28;20496;-63
2024/01/26 09:44:30;;;;;;;16.60;11.50;;;9.30;99.90;;;;;;4999074;28;20605;-62
2024/01/26 09:46:58;;;;;;;14.73;10.03;;;9.30;99.90;;;;;;4997763;28;20736;-63
2024/01/26 09:49:29;;;;;;;14.30;9.70;;;9.30;99.90;;;;;;4999679;28;20564;-63
2024/01/26 09:51:58;;;;;;;12.90;9.00;;;9.40;99.90;;;;;;5000498;28;20499;-62
2024/01/26 09:54:27;;;;;;;13.70;10.00;;;9.40;99.90;;;;;;4994348;28;20492;-63
2024/01/26 09:56:56;;;;;;;11.70;8.83;;;9.40;99.90;;;;;;4999963;28;20558;-62
2024/01/26 09:59:24;;;;;;;12.03;9.90;;;9.40;99.90;;;;;;4999946;28;20507;-62
2024/01/26 10:01:53;;;;;;;12.17;9.00;;;9.40;99.90;;;;;;4999786;28;20497;-63
2024/01/26 10:04:21;;;;;;;12.60;8.87;;;9.40;99.90;;;;;;5001091;28;20575;-62
2024/01/26 10:06:50;;;;;;;12.33;9.57;;;9.40;99.90;;;;;;5001437;28;20591;-63
2024/01/26 10:09:19;;;;;;;12.27;9.77;;;9.50;99.90;;;;;;4995523;28;20482;-62
2024/01/26 10:11:47;;;;;;;14.50;9.90;;;9.50;99.90;;;;;;5000743;28;20575;-63
2024/01/26 10:14:21;;;;;;;13.50;10.43;;;9.50;99.90;;;;;;4997358;28;20515;-62
2024/01/26 10:16:57;;;;;;;13.50;9.93;;;9.50;99.90;;;;;;5001444;28;20885;-62
2024/01/26 10:19:26;;;;;;;16.10;11.10;;;9.60;99.90;;;;;;4995776;28;20469;-63
2024/01/26 10:21:56;;;;;;;11.90;9.70;;;9.60;99.90;;;;;;4997579;28;20500;-62
2024/01/26 10:24:25;;;;;;;12.33;10.13;;;9.60;99.90;;;;;;4994177;28;20488;-63
2024/01/26 10:26:55;;;;;;;11.53;9.87;;;9.60;99.90;;;;;;4996301;28;20464;-62
2024/01/26 10:29:24;;;;;;;11.47;9.77;;;9.60;99.90;;;;;;4999603;28;20556;-62
2024/01/26 10:31:52;;;;;;;10.90;9.70;;;9.70;99.90;;;;;;4997825;28;20492;-63
2024/01/26 10:34:21;;;;;;;10.67;9.30;;;9.70;99.90;;;;;;4999111;28;20499;-62
2024/01/26 10:36:50;;;;;;;10.37;8.57;;;9.70;99.90;;;;;;4998876;28;20472;-62
2024/01/26 10:39:23;;;;;;;12.93;8.83;;;9.70;99.90;;;;;;4997139;28;20532;-62
2024/01/26 10:41:53;;;;;;;11.43;8.13;;;9.80;99.90;;;;;;4994171;28;20487;-62
2024/01/26 10:44:22;;;;;;;10.70;8.57;;;9.80;99.90;;;;;;5000420;28;20965;-63
2024/01/26 10:46:52;;;;;;;10.50;8.77;;;9.80;99.90;;;;;;4999407;28;20579;-63
2024/01/26 10:49:23;;;;;;;11.83;8.67;;;9.80;99.90;;;;;;4998045;28;20484;-63
2024/01/26 10:51:52;;;;;;;11.63;8.80;;;9.80;99.90;;;;;;4999515;28;20518;-63
2024/01/26 10:54:25;;;;;;;10.57;8.60;;;9.80;99.90;;;;;;4998665;28;20496;-63
2024/01/26 10:56:53;;;;;;;10.00;8.03;;;9.80;99.90;;;;;;4998216;28;21010;-63
2024/01/26 10:59:23;;;;;;;10.27;8.30;;;9.80;99.90;;;;;;5000010;28;20476;-63
2024/01/26 11:01:51;;;;;;;10.07;7.10;;;9.90;99.90;;;;;;4999725;28;21152;-63
2024/01/26 11:04:19;;;;;;;8.00;7.03;;;9.90;99.90;;;;;;4999282;28;20934;-63
2024/01/26 11:06:48;;;;;;;8.50;7.10;;;9.90;99.90;;;;;;4999238;28;20468;-63
2024/01/26 11:09:19;;;;;;;7.60;6.70;;;9.90;99.90;;;;;;4991390;28;21059;-63
2024/01/26 11:11:53;;;;;;;8.30;7.17;;;9.90;99.90;;;;;;4998840;28;20492;-63
2024/01/26 11:14:27;;;;;;;7.47;6.77;;;10.00;99.90;;;;;;4998986;28;21327;-63
2024/01/26 11:17:09;;;;;;;8.50;6.97;;;10.00;99.90;;;;;;4997405;28;20478;-63
2024/01/26 11:19:38;;;;;;;7.80;6.47;;;10.00;99.90;;;;;;4997886;28;20491;-62
2024/01/26 11:22:09;;;;;;;7.80;7.00;;;10.00;99.90;;;;;;4995985;28;20583;-63
2024/01/26 11:24:37;;;;;;;6.90;5.53;;;10.00;99.90;;;;;;4998447;28;20897;-62
2024/01/26 11:27:06;;;;;;;7.63;6.30;;;10.00;99.90;;;;;;4998466;28;20491;-62
2024/01/26 11:29:35;;;;;;;7.20;6.20;;;10.00;99.90;;;;;;4999261;28;20483;-62
2024/01/26 11:32:17;;;;;;;7.30;6.60;;;10.10;99.90;;;;;;4996918;28;20520;-64
2024/01/26 11:34:45;;;;;;;7.63;6.10;;;10.10;99.90;;;;;;4999188;28;20504;-62
2024/01/26 11:37:14;;;;;;;6.30;5.60;;;10.20;99.90;;;;;;5000449;28;20499;-62
2024/01/26 11:39:43;;;;;;;6.07;5.47;;;10.20;99.90;;;;;;4993850;28;20555;-62
2024/01/26 11:42:12;;;;;;;6.57;5.87;;;10.20;99.90;;;;;;4995952;28;20575;-62
2024/01/26 11:44:42;;;;;;;5.87;4.97;;;10.30;99.90;;;;;;4999186;28;20472;-63
2024/01/26 11:47:11;;;;;;;4.20;3.53;;;10.30;99.90;;;;;;5000197;28;20472;-63
2024/01/26 11:49:40;;;;;;;4.10;3.70;;;10.30;99.90;;;;;;4997843;28;20483;-63
2024/01/26 11:52:09;;;;;;;2.83;2.63;;;10.30;99.90;;;;;;5016551;28;20526;-63
2024/01/26 11:54:37;;;;;;;2.40;1.73;;;10.30;99.90;;;;;;5017043;28;20941;-63
2024/01/26 11:57:06;;;;;;;2.53;2.00;;;10.20;99.90;;;;;;5014416;28;20474;-62
2024/01/26 11:59:36;;;;;;;1.53;1.43;;;10.20;99.90;;;;;;5014659;28;20555;-62
2024/01/26 12:02:05;;;;;;;2.80;1.57;;;10.20;99.90;;;;;;5017437;28;20505;-62
2024/01/26 12:04:33;;;;;;;4.50;1.93;;;10.20;99.90;;;;;;5016049;28;20910;-63
2024/01/26 12:07:03;;;;;;;4.93;2.00;;;10.20;99.90;;;;;;5019351;28;20542;-63
2024/01/26 12:09:31;;;;;;;9.33;2.00;;;10.10;99.90;;;;;;5018348;28;20488;-62
2024/01/26 12:12:00;;;;;;;6.83;2.33;;;10.00;99.90;;;;;;5022062;28;20486;-62
2024/01/26 12:14:28;;;;;;;6.77;1.90;;;10.00;99.90;;;;;;5024096;28;21101;-63
2024/01/26 12:16:57;;;;;;;5.40;2.03;;;9.80;99.90;;;;;;5019225;28;20474;-62
2024/01/26 12:19:27;;;;;;;7.63;2.20;;;9.70;99.90;;;;;;5016462;28;20466;-62
2024/01/26 12:21:55;;;;;;;7.53;2.20;;;9.60;99.90;;;;;;5020763;28;20574;-62
2024/01/26 12:24:23;;;;;;;7.77;3.07;;;9.50;99.90;;;;;;5019410;28;20467;-63
2024/01/26 12:26:52;;;;;;;7.60;2.27;;;9.50;99.90;;;;;;5011653;28;20589;-62
2024/01/26 12:29:20;;;;;;;10.33;3.13;;;9.40;99.90;;;;;;5019730;28;20501;-62
2024/01/26 12:31:51;;;;;;;7.33;2.40;;;9.30;99.90;;;;;;5020545;28;20583;-61
2024/01/26 12:34:21;;;;;;;9.10;2.50;;;9.20;99.90;;;;;;5019105;28;21587;-62
2024/01/26 12:36:49;;;;;;;7.40;2.13;;;9.10;99.90;;;;;;5020921;28;20482;-61
2024/01/26 12:39:17;;;;;;;9.57;2.43;;;9.10;99.90;;;;;;5020264;28;20549;-62
2024/01/26 12:41:45;;;;;;;10.10;2.33;;;9.00;99.90;;;;;;5014603;28;20503;-62
2024/01/26 12:44:14;;;;;;;9.83;2.50;;;8.90;99.90;;;;;;5015243;28;20555;-62
2024/01/26 12:46:42;;;;;;;8.80;3.67;;;8.90;99.90;;;;;;5013681;28;20548;-63
2024/01/26 12:49:10;;;;;;;9.77;2.27;;;8.80;99.90;;;;;;5020162;28;20541;-63
2024/01/26 12:51:40;;;;;;;9.93;2.30;;;8.80;99.90;;;;;;5018803;28;20495;-64